NKS225 KFLL-KATL
Flight info
| Callsign | NKS225 |
|---|---|
| Flight time | 1h 26m |
| Altitude | 36000 |
| Route | FRSBE2 STYMY Q77 MJAMS/N0446F370 Q77 SHRKS/N0445F360 LAIRI LARZZ JJEDI4 |
| Aircraft | A320/M-SDE3FGHIRWY/LB1 |
Departure
| Time | 2026-05-04 06:44 |
|---|---|
| Airport | Fort Lauderdale Hollywood International Airport (KFLL) |
Arrival
| Time | 2026-05-04 08:10 |
|---|---|
| Airport | Hartsfield Jackson Atlanta International Airport (KATL) |
| Time | Latitude | Longitude | Altitude | Speed | Heading |
|---|---|---|---|---|---|
| 2026-05-04 06:29 | 26.06884 | -80.14431 | 16 ft | 0 kts | 360° |
| 2026-05-04 06:33 | 26.06815 | -80.14421 | 18 ft | 4 kts | 280° |
| 2026-05-04 06:34 | 26.06817 | -80.14393 | 19 ft | 4 kts | 261° |
| 2026-05-04 06:34 | 26.06818 | -80.14379 | 18 ft | 0 kts | 269° |
| 2026-05-04 06:36 | 26.06817 | -80.14489 | 16 ft | 8 kts | 270° |
| 2026-05-04 06:37 | 26.06817 | -80.14557 | 15 ft | 10 kts | 270° |
| 2026-05-04 06:37 | 26.06852 | -80.14625 | 16 ft | 11 kts | 316° |
| 2026-05-04 06:37 | 26.06919 | -80.14685 | 16 ft | 13 kts | 322° |
| 2026-05-04 06:37 | 26.06994 | -80.14759 | 16 ft | 15 kts | 315° |
| 2026-05-04 06:38 | 26.07072 | -80.14845 | 16 ft | 13 kts | 315° |
| 2026-05-04 06:38 | 26.07138 | -80.14918 | 16 ft | 12 kts | 315° |
| 2026-05-04 06:40 | 26.07563 | -80.15344 | 15 ft | 19 kts | 270° |
| 2026-05-04 06:40 | 26.07564 | -80.15495 | 15 ft | 19 kts | 270° |
| 2026-05-04 06:40 | 26.07565 | -80.15643 | 16 ft | 19 kts | 270° |
| 2026-05-04 06:40 | 26.07566 | -80.15794 | 16 ft | 20 kts | 270° |
| 2026-05-04 06:41 | 26.07566 | -80.15951 | 16 ft | 21 kts | 270° |
| 2026-05-04 06:41 | 26.07567 | -80.16121 | 17 ft | 23 kts | 270° |
| 2026-05-04 06:41 | 26.07570 | -80.16277 | 17 ft | 14 kts | 285° |
| 2026-05-04 06:41 | 26.07600 | -80.16303 | 18 ft | 0 kts | 346° |
| 2026-05-04 06:42 | 26.07630 | -80.16307 | 19 ft | 9 kts | 357° |
| 2026-05-04 06:44 | 26.07862 | -80.09748 | 1845 ft | 180 kts | 79° |
| 2026-05-04 06:44 | 26.08276 | -80.08356 | 2079 ft | 200 kts | 64° |
| 2026-05-04 06:44 | 26.09158 | -80.07088 | 2271 ft | 219 kts | 34° |
| 2026-05-04 06:45 | 26.10618 | -80.06420 | 2428 ft | 241 kts | 3° |
| 2026-05-04 06:45 | 26.12344 | -80.06298 | 2790 ft | 263 kts | 7° |
| 2026-05-04 06:45 | 26.14134 | -80.05730 | 3548 ft | 271 kts | 17° |
| 2026-05-04 06:45 | 26.15961 | -80.05242 | 4509 ft | 272 kts | 0° |
| 2026-05-04 06:46 | 26.17829 | -80.05530 | 5376 ft | 273 kts | 342° |
| 2026-05-04 06:46 | 26.19640 | -80.06174 | 6274 ft | 274 kts | 336° |
| 2026-05-04 06:46 | 26.21320 | -80.07138 | 7131 ft | 273 kts | 320° |
| 2026-05-04 06:46 | 26.22651 | -80.08622 | 7949 ft | 271 kts | 303° |
| 2026-05-04 06:48 | 26.29334 | -80.22730 | 12187 ft | 327 kts | 299° |
| 2026-05-04 06:48 | 26.30564 | -80.24880 | 12832 ft | 330 kts | 299° |
| 2026-05-04 06:49 | 26.31802 | -80.27049 | 13484 ft | 333 kts | 298° |
| 2026-05-04 06:50 | 26.40687 | -80.42738 | 17447 ft | 351 kts | 296° |
| 2026-05-04 06:51 | 26.41994 | -80.45047 | 17999 ft | 353 kts | 296° |
| 2026-05-04 06:51 | 26.43307 | -80.47366 | 18511 ft | 355 kts | 296° |
| 2026-05-04 06:51 | 26.44634 | -80.49712 | 18982 ft | 358 kts | 296° |
| 2026-05-04 06:51 | 26.45966 | -80.52068 | 19455 ft | 360 kts | 296° |
| 2026-05-04 06:52 | 26.47479 | -80.54334 | 19921 ft | 371 kts | 306° |
| 2026-05-04 06:52 | 26.49478 | -80.56222 | 20410 ft | 384 kts | 319° |
| 2026-05-04 06:52 | 26.51913 | -80.57569 | 20877 ft | 400 kts | 333° |
| 2026-05-04 06:52 | 26.54609 | -80.58449 | 21335 ft | 405 kts | 336° |
| 2026-05-04 06:53 | 26.57325 | -80.59304 | 21815 ft | 408 kts | 336° |
| 2026-05-04 06:53 | 26.60063 | -80.60166 | 22278 ft | 410 kts | 336° |
| 2026-05-04 06:53 | 26.62816 | -80.61033 | 22711 ft | 412 kts | 336° |
| 2026-05-04 06:53 | 26.65585 | -80.61908 | 23155 ft | 415 kts | 336° |
| 2026-05-04 06:54 | 26.68372 | -80.62790 | 23590 ft | 417 kts | 336° |
| 2026-05-04 06:54 | 26.71175 | -80.63679 | 23993 ft | 420 kts | 336° |
| 2026-05-04 06:54 | 26.73989 | -80.64576 | 24392 ft | 421 kts | 335° |
| 2026-05-04 06:54 | 26.76810 | -80.65477 | 24788 ft | 422 kts | 335° |
| 2026-05-04 06:55 | 26.79601 | -80.66370 | 25198 ft | 423 kts | 335° |
| 2026-05-04 06:55 | 26.82436 | -80.67279 | 25611 ft | 424 kts | 335° |
| 2026-05-04 06:55 | 26.85278 | -80.68190 | 26007 ft | 425 kts | 335° |
| 2026-05-04 06:55 | 26.88127 | -80.69100 | 26443 ft | 426 kts | 334° |
| 2026-05-04 06:56 | 26.90986 | -80.70010 | 26812 ft | 428 kts | 334° |
| 2026-05-04 06:57 | 27.10794 | -80.77502 | 29458 ft | 432 kts | 331° |
| 2026-05-04 06:58 | 27.13638 | -80.78575 | 29984 ft | 430 kts | 331° |
| 2026-05-04 06:58 | 27.15510 | -80.79277 | 30300 ft | 428 kts | 330° |
| 2026-05-04 06:58 | 27.19244 | -80.80682 | 30856 ft | 428 kts | 330° |
| 2026-05-04 06:58 | 27.22073 | -80.81756 | 31167 ft | 429 kts | 330° |
| 2026-05-04 06:59 | 27.23948 | -80.82471 | 31384 ft | 429 kts | 330° |
| 2026-05-04 06:59 | 27.27738 | -80.83916 | 31832 ft | 430 kts | 330° |
| 2026-05-04 06:59 | 27.29620 | -80.84632 | 32065 ft | 431 kts | 330° |
| 2026-05-04 06:59 | 27.33419 | -80.86083 | 32536 ft | 431 kts | 329° |
| 2026-05-04 07:01 | 27.52147 | -80.93801 | 35000 ft | 426 kts | 327° |
| 2026-05-04 07:01 | 27.54925 | -80.94942 | 35332 ft | 424 kts | 327° |
| 2026-05-04 07:02 | 27.57695 | -80.96083 | 35636 ft | 423 kts | 327° |
| 2026-05-04 07:02 | 27.60457 | -80.97226 | 35930 ft | 423 kts | 327° |
| 2026-05-04 07:02 | 27.63220 | -80.98372 | 36048 ft | 424 kts | 326° |
| 2026-05-04 07:02 | 27.66007 | -80.99534 | 36058 ft | 430 kts | 326° |
| 2026-05-04 07:03 | 27.71650 | -81.01878 | 36058 ft | 433 kts | 327° |
| 2026-05-04 07:03 | 27.77320 | -81.04219 | 36073 ft | 434 kts | 327° |
| 2026-05-04 07:04 | 27.82988 | -81.06558 | 36062 ft | 433 kts | 327° |
| 2026-05-04 07:04 | 27.88641 | -81.08900 | 36067 ft | 433 kts | 327° |
| 2026-05-04 07:05 | 27.94307 | -81.11252 | 36082 ft | 433 kts | 327° |
| 2026-05-04 07:05 | 27.99965 | -81.13604 | 36086 ft | 434 kts | 327° |
| 2026-05-04 07:06 | 28.08301 | -81.17332 | 36096 ft | 427 kts | 323° |
| 2026-05-04 07:07 | 28.13648 | -81.20166 | 36089 ft | 422 kts | 322° |
| 2026-05-04 07:09 | 28.35094 | -81.31345 | 36120 ft | 424 kts | 324° |
| 2026-05-04 07:09 | 28.40471 | -81.34092 | 36121 ft | 423 kts | 324° |
| 2026-05-04 07:10 | 28.45820 | -81.36813 | 36092 ft | 420 kts | 324° |
| 2026-05-04 07:12 | 28.67688 | -81.48039 | 36099 ft | 434 kts | 324° |
| 2026-05-04 07:12 | 28.73182 | -81.50853 | 36110 ft | 432 kts | 325° |
| 2026-05-04 07:13 | 28.78654 | -81.53668 | 36100 ft | 432 kts | 325° |
| 2026-05-04 07:13 | 28.84131 | -81.56501 | 36112 ft | 432 kts | 325° |
| 2026-05-04 07:14 | 28.95573 | -81.61207 | 36118 ft | 461 kts | 344° |
| 2026-05-04 07:14 | 28.98774 | -81.61492 | 36188 ft | 463 kts | 345° |
| 2026-05-04 07:15 | 29.05179 | -81.62058 | 36127 ft | 461 kts | 345° |
| 2026-05-04 07:15 | 29.11527 | -81.62633 | 36134 ft | 461 kts | 345° |
| 2026-05-04 07:16 | 29.17922 | -81.63218 | 36134 ft | 461 kts | 345° |
| 2026-05-04 07:16 | 29.24318 | -81.63813 | 36143 ft | 461 kts | 345° |
| 2026-05-04 07:17 | 29.30715 | -81.64402 | 36150 ft | 460 kts | 345° |
| 2026-05-04 07:17 | 29.37088 | -81.64983 | 36132 ft | 459 kts | 345° |
| 2026-05-04 07:18 | 29.43464 | -81.65571 | 36134 ft | 460 kts | 345° |
| 2026-05-04 07:18 | 29.49838 | -81.66157 | 36172 ft | 459 kts | 345° |
| 2026-05-04 07:19 | 29.56193 | -81.66738 | 36168 ft | 457 kts | 345° |
| 2026-05-04 07:19 | 29.62509 | -81.67324 | 36145 ft | 453 kts | 346° |
| 2026-05-04 07:20 | 29.68798 | -81.67911 | 36146 ft | 454 kts | 346° |
| 2026-05-04 07:20 | 29.75096 | -81.68497 | 36151 ft | 454 kts | 346° |
| 2026-05-04 07:22 | 30.00306 | -81.70835 | 36160 ft | 454 kts | 346° |
| 2026-05-04 07:23 | 30.06609 | -81.71426 | 36159 ft | 454 kts | 346° |
| 2026-05-04 07:23 | 30.12912 | -81.72014 | 36155 ft | 454 kts | 346° |
| 2026-05-04 07:24 | 30.19201 | -81.72595 | 36147 ft | 452 kts | 347° |
| 2026-05-04 07:24 | 30.25468 | -81.73181 | 36173 ft | 452 kts | 347° |
| 2026-05-04 07:26 | 30.49227 | -81.79118 | 36148 ft | 427 kts | 325° |
| 2026-05-04 07:27 | 30.54443 | -81.82335 | 36163 ft | 427 kts | 324° |
| 2026-05-04 07:27 | 30.59688 | -81.85580 | 36188 ft | 427 kts | 325° |
| 2026-05-04 07:28 | 30.64940 | -81.88819 | 36212 ft | 427 kts | 325° |
| 2026-05-04 07:28 | 30.70193 | -81.92061 | 36237 ft | 427 kts | 325° |
| 2026-05-04 07:29 | 30.75441 | -81.95307 | 36228 ft | 427 kts | 325° |
| 2026-05-04 07:29 | 30.80688 | -81.98553 | 36288 ft | 427 kts | 325° |
| 2026-05-04 07:30 | 30.85939 | -82.01800 | 36249 ft | 427 kts | 325° |
| 2026-05-04 07:30 | 30.91182 | -82.05047 | 36250 ft | 427 kts | 325° |
| 2026-05-04 07:31 | 30.96429 | -82.08303 | 36199 ft | 427 kts | 325° |
| 2026-05-04 07:33 | 31.17404 | -82.21383 | 36194 ft | 427 kts | 326° |
| 2026-05-04 07:33 | 31.22646 | -82.24661 | 36180 ft | 427 kts | 326° |
| 2026-05-04 07:34 | 31.27886 | -82.27932 | 36177 ft | 427 kts | 326° |
| 2026-05-04 07:34 | 31.33119 | -82.31206 | 36181 ft | 425 kts | 326° |
| 2026-05-04 07:35 | 31.38330 | -82.34476 | 36179 ft | 425 kts | 326° |
| 2026-05-04 07:35 | 31.43542 | -82.37753 | 36177 ft | 425 kts | 326° |
| 2026-05-04 07:36 | 31.48754 | -82.41034 | 36164 ft | 425 kts | 327° |
| 2026-05-04 07:38 | 31.69424 | -82.54069 | 36171 ft | 419 kts | 327° |
| 2026-05-04 07:38 | 31.74533 | -82.57303 | 36146 ft | 411 kts | 327° |
| 2026-05-04 07:39 | 31.79499 | -82.60455 | 36159 ft | 407 kts | 327° |
| 2026-05-04 07:39 | 31.84497 | -82.63621 | 36012 ft | 415 kts | 327° |
| 2026-05-04 07:40 | 31.87064 | -82.65258 | 35795 ft | 423 kts | 327° |
| 2026-05-04 07:40 | 31.89657 | -82.66914 | 35549 ft | 424 kts | 328° |
| 2026-05-04 07:40 | 31.92252 | -82.68565 | 35305 ft | 423 kts | 328° |
| 2026-05-04 07:40 | 31.94838 | -82.70206 | 35064 ft | 421 kts | 328° |
| 2026-05-04 07:41 | 31.97412 | -82.71838 | 34821 ft | 419 kts | 328° |
| 2026-05-04 07:41 | 31.99964 | -82.73460 | 34583 ft | 416 kts | 329° |
| 2026-05-04 07:41 | 32.02506 | -82.75078 | 34347 ft | 414 kts | 329° |
| 2026-05-04 07:41 | 32.05032 | -82.76688 | 34114 ft | 412 kts | 329° |
| 2026-05-04 07:42 | 32.07542 | -82.78291 | 33820 ft | 409 kts | 329° |
| 2026-05-04 07:42 | 32.10043 | -82.79891 | 33538 ft | 407 kts | 329° |
| 2026-05-04 07:42 | 32.12522 | -82.81475 | 33273 ft | 405 kts | 329° |
| 2026-05-04 07:42 | 32.14994 | -82.83055 | 33031 ft | 403 kts | 329° |
| 2026-05-04 07:43 | 32.17454 | -82.84631 | 32769 ft | 401 kts | 329° |
| 2026-05-04 07:43 | 32.19901 | -82.86199 | 32504 ft | 399 kts | 329° |
| 2026-05-04 07:43 | 32.22338 | -82.87764 | 32245 ft | 398 kts | 329° |
| 2026-05-04 07:43 | 32.23943 | -82.88795 | 32073 ft | 397 kts | 329° |
| 2026-05-04 07:44 | 32.26373 | -82.90354 | 31823 ft | 396 kts | 329° |
| 2026-05-04 07:44 | 32.28790 | -82.91903 | 31590 ft | 395 kts | 329° |
| 2026-05-04 07:44 | 32.31200 | -82.93448 | 31341 ft | 393 kts | 329° |
| 2026-05-04 07:44 | 32.33602 | -82.94989 | 31094 ft | 392 kts | 329° |
| 2026-05-04 07:45 | 32.35998 | -82.96526 | 30827 ft | 391 kts | 329° |
| 2026-05-04 07:45 | 32.38304 | -82.98207 | 30583 ft | 388 kts | 321° |
| 2026-05-04 07:45 | 32.40358 | -83.00249 | 30265 ft | 383 kts | 317° |
| 2026-05-04 07:45 | 32.42357 | -83.02319 | 29709 ft | 380 kts | 317° |
| 2026-05-04 07:46 | 32.44340 | -83.04366 | 29204 ft | 376 kts | 317° |
| 2026-05-04 07:46 | 32.46305 | -83.06389 | 28707 ft | 372 kts | 317° |
| 2026-05-04 07:46 | 32.48247 | -83.08386 | 28225 ft | 369 kts | 317° |
| 2026-05-04 07:46 | 32.50175 | -83.10369 | 27732 ft | 366 kts | 317° |
| 2026-05-04 07:47 | 32.52088 | -83.12336 | 27265 ft | 363 kts | 317° |
| 2026-05-04 07:47 | 32.53989 | -83.14296 | 26802 ft | 360 kts | 317° |
| 2026-05-04 07:47 | 32.55872 | -83.16243 | 26335 ft | 358 kts | 317° |
| 2026-05-04 07:49 | 32.68759 | -83.29612 | 23306 ft | 345 kts | 316° |
| 2026-05-04 07:49 | 32.70559 | -83.31476 | 22890 ft | 341 kts | 316° |
| 2026-05-04 07:49 | 32.72341 | -83.33320 | 22466 ft | 338 kts | 316° |
| 2026-05-04 07:50 | 32.74104 | -83.35151 | 22048 ft | 335 kts | 316° |
| 2026-05-04 07:50 | 32.75846 | -83.36971 | 21627 ft | 332 kts | 316° |
| 2026-05-04 07:50 | 32.77558 | -83.38760 | 21201 ft | 331 kts | 316° |
| 2026-05-04 07:50 | 32.79277 | -83.40555 | 20774 ft | 329 kts | 316° |
| 2026-05-04 07:51 | 32.80996 | -83.42352 | 20331 ft | 328 kts | 316° |
| 2026-05-04 07:51 | 32.82700 | -83.44135 | 19898 ft | 326 kts | 317° |
| 2026-05-04 07:51 | 32.84405 | -83.45914 | 19458 ft | 326 kts | 317° |
| 2026-05-04 07:51 | 32.86107 | -83.47689 | 19017 ft | 325 kts | 317° |
| 2026-05-04 07:52 | 32.87805 | -83.49463 | 18576 ft | 325 kts | 317° |
| 2026-05-04 07:52 | 32.89503 | -83.51239 | 18092 ft | 325 kts | 317° |
| 2026-05-04 07:52 | 32.91193 | -83.53013 | 17642 ft | 323 kts | 317° |
| 2026-05-04 07:52 | 32.92875 | -83.54779 | 17158 ft | 323 kts | 317° |
| 2026-05-04 07:53 | 32.94566 | -83.56553 | 16620 ft | 324 kts | 317° |
| 2026-05-04 07:54 | 33.06336 | -83.68884 | 13452 ft | 320 kts | 319° |
| 2026-05-04 07:55 | 33.08006 | -83.70634 | 13005 ft | 319 kts | 319° |
| 2026-05-04 07:55 | 33.09668 | -83.72377 | 12586 ft | 317 kts | 319° |
| 2026-05-04 07:55 | 33.11296 | -83.74089 | 12452 ft | 306 kts | 319° |
| 2026-05-04 07:55 | 33.12866 | -83.75741 | 12309 ft | 296 kts | 319° |
| 2026-05-04 07:56 | 33.14398 | -83.77353 | 12064 ft | 291 kts | 319° |
| 2026-05-04 07:56 | 33.15907 | -83.78947 | 11776 ft | 289 kts | 319° |
| 2026-05-04 07:56 | 33.17410 | -83.80538 | 11393 ft | 289 kts | 319° |
| 2026-05-04 07:56 | 33.18915 | -83.82136 | 10992 ft | 290 kts | 319° |
| 2026-05-04 07:57 | 33.20370 | -83.83756 | 10671 ft | 289 kts | 317° |
| 2026-05-04 07:57 | 33.21814 | -83.85462 | 10363 ft | 287 kts | 316° |
| 2026-05-04 07:57 | 33.23195 | -83.87132 | 10051 ft | 286 kts | 316° |
| 2026-05-04 07:57 | 33.24589 | -83.88826 | 9699 ft | 285 kts | 316° |
| 2026-05-04 07:58 | 33.25981 | -83.90508 | 9345 ft | 284 kts | 316° |
| 2026-05-04 07:58 | 33.27372 | -83.92177 | 8993 ft | 283 kts | 316° |
| 2026-05-04 07:58 | 33.28762 | -83.93838 | 8638 ft | 282 kts | 316° |
| 2026-05-04 07:58 | 33.30149 | -83.95492 | 8306 ft | 281 kts | 316° |
| 2026-05-04 07:59 | 33.31527 | -83.97144 | 8003 ft | 280 kts | 315° |
| 2026-05-04 07:59 | 33.32886 | -83.98773 | 7868 ft | 275 kts | 315° |
| 2026-05-04 07:59 | 33.34233 | -84.00385 | 7704 ft | 274 kts | 315° |
| 2026-05-04 07:59 | 33.35703 | -84.01810 | 7402 ft | 272 kts | 329° |
| 2026-05-04 08:00 | 33.37436 | -84.02684 | 7088 ft | 271 kts | 346° |
| 2026-05-04 08:00 | 33.39303 | -84.02940 | 6771 ft | 271 kts | 359° |
| 2026-05-04 08:00 | 33.41188 | -84.02966 | 6436 ft | 271 kts | 358° |
| 2026-05-04 08:02 | 33.53511 | -84.04700 | 6005 ft | 228 kts | 347° |
| 2026-05-04 08:02 | 33.55064 | -84.05075 | 6007 ft | 228 kts | 347° |
| 2026-05-04 08:02 | 33.56616 | -84.05447 | 6003 ft | 227 kts | 347° |
| 2026-05-04 08:03 | 33.58166 | -84.05818 | 6005 ft | 227 kts | 347° |
| 2026-05-04 08:03 | 33.59716 | -84.06190 | 6012 ft | 227 kts | 347° |
| 2026-05-04 08:03 | 33.61226 | -84.06684 | 6009 ft | 220 kts | 331° |
| 2026-05-04 08:03 | 33.62378 | -84.07770 | 5992 ft | 207 kts | 307° |
| 2026-05-04 08:04 | 33.63028 | -84.09275 | 6010 ft | 204 kts | 283° |
| 2026-05-04 08:04 | 33.63151 | -84.10962 | 5940 ft | 204 kts | 270° |
| 2026-05-04 08:04 | 33.63149 | -84.12656 | 5725 ft | 202 kts | 270° |
| 2026-05-04 08:04 | 33.63150 | -84.14341 | 5472 ft | 201 kts | 270° |
| 2026-05-04 08:05 | 33.63153 | -84.16019 | 5212 ft | 201 kts | 270° |
| 2026-05-04 08:05 | 33.63156 | -84.17690 | 4967 ft | 200 kts | 269° |
| 2026-05-04 08:05 | 33.63160 | -84.19351 | 4689 ft | 199 kts | 269° |
| 2026-05-04 08:05 | 33.63162 | -84.21017 | 4429 ft | 199 kts | 269° |
| 2026-05-04 08:06 | 33.63165 | -84.22670 | 4163 ft | 198 kts | 269° |
| 2026-05-04 08:06 | 33.63168 | -84.24288 | 3916 ft | 191 kts | 269° |
| 2026-05-04 08:06 | 33.63170 | -84.25849 | 3640 ft | 183 kts | 269° |
| 2026-05-04 08:06 | 33.63172 | -84.27352 | 3421 ft | 177 kts | 269° |
| 2026-05-04 08:08 | 33.63179 | -84.36062 | 2029 ft | 139 kts | 270° |
| 2026-05-04 08:08 | 33.63167 | -84.37221 | 1842 ft | 139 kts | 268° |
| 2026-05-04 08:10 | 33.63182 | -84.43798 | 1005 ft | 13 kts | 270° |
| 2026-05-04 08:11 | 33.63182 | -84.43931 | 1004 ft | 19 kts | 273° |
| 2026-05-04 08:11 | 33.63279 | -84.44251 | 1006 ft | 14 kts | 324° |
| 2026-05-04 08:11 | 33.63366 | -84.44225 | 1006 ft | 13 kts | 40° |
| 2026-05-04 08:12 | 33.63455 | -84.44196 | 1006 ft | 14 kts | 1° |
| 2026-05-04 08:12 | 33.63560 | -84.44193 | 1007 ft | 16 kts | 1° |
| 2026-05-04 08:12 | 33.63659 | -84.44162 | 1007 ft | 13 kts | 41° |
| 2026-05-04 08:12 | 33.63749 | -84.44115 | 1006 ft | 16 kts | 359° |
| 2026-05-04 08:13 | 33.63824 | -84.44118 | 1006 ft | 6 kts | 358° |
| 2026-05-04 08:13 | 33.63874 | -84.44120 | 1006 ft | 8 kts | 358° |
| 2026-05-04 08:13 | 33.63938 | -84.44118 | 1006 ft | 6 kts | 5° |
| 2026-05-04 08:13 | 33.63944 | -84.44128 | 1006 ft | 1 kts | 249° |
| 2026-05-04 08:14 | 33.63935 | -84.44139 | 1006 ft | 3 kts | 228° |
| 2026-05-04 08:14 | 33.63924 | -84.44169 | 1006 ft | 4 kts | 263° |
| 2026-05-04 08:14 | 33.63923 | -84.44181 | 1006 ft | 3 kts | 267° |
| 2026-05-04 08:16 | 33.63923 | -84.44194 | 1006 ft | 0 kts | 268° |
| 2026-05-04 08:19 | 33.63180 | -84.39920 | 1363 ft | 143 kts | 272° |
| 2026-05-04 08:19 | 33.63197 | -84.41125 | 1170 ft | 144 kts | 269° |
| 2026-05-04 08:20 | 33.63186 | -84.42326 | 1020 ft | 139 kts | 270° |
| 2026-05-04 08:20 | 33.63184 | -84.43347 | 1008 ft | 87 kts | 269° |
| 2026-05-04 08:20 | 33.63182 | -84.43709 | 1007 ft | 1 kts | 270° |
| 2026-05-04 08:20 | 33.63182 | -84.43739 | 1006 ft | 7 kts | 270° |
| 2026-05-04 08:21 | 33.63182 | -84.43831 | 1005 ft | 15 kts | 270° |
| 2026-05-04 08:21 | 33.63187 | -84.43978 | 1004 ft | 20 kts | 278° |
| 2026-05-04 08:21 | 33.63225 | -84.44158 | 1005 ft | 23 kts | 294° |
| 2026-05-04 08:21 | 33.63306 | -84.44263 | 1006 ft | 14 kts | 353° |
| 2026-05-04 08:22 | 33.63387 | -84.44206 | 1006 ft | 13 kts | 30° |
| 2026-05-04 08:22 | 33.63485 | -84.44195 | 1007 ft | 15 kts | 1° |